Time;durP1;ratioP1;P1;durP2;ratioP2;P2;SDS_P1;SDS_P2;PMS_P1;PMS_P2;Temp;Humidity;BMP_temperature;BMP_pressure;BME280_temperature;BME280_humidity;BME280_pressure;Samples;Min_cycle;Max_cycle;Signal;HPM_P1;HPM_P2
2023/02/11 00:00:08;;;;;;;9.88;4.43;;;;;;;;;;5022353;28;20034;-78
2023/02/11 00:02:33;;;;;;;12.48;4.82;;;;;;;;;;5007577;28;20037;-78
2023/02/11 00:05:00;;;;;;;12.43;5.00;;;;;;;;;;5024357;28;20071;-79
2023/02/11 00:07:28;;;;;;;9.50;5.03;;;;;;;;;;5028531;28;20064;-78
2023/02/11 00:09:54;;;;;;;11.20;5.03;;;;;;;;;;5027524;28;20040;-79
2023/02/11 00:12:19;;;;;;;11.20;4.60;;;;;;;;;;5010587;28;20029;-79
2023/02/11 00:14:44;;;;;;;10.70;4.95;;;;;;;;;;5024720;28;20033;-79
2023/02/11 00:17:10;;;;;;;9.25;4.60;;;;;;;;;;5022205;28;21619;-79
2023/02/11 00:19:35;;;;;;;12.45;4.25;;;;;;;;;;5025743;28;20034;-78
2023/02/11 00:22:00;;;;;;;10.63;4.53;;;;;;;;;;5023395;28;20095;-79
2023/02/11 00:24:26;;;;;;;9.05;4.55;;;;;;;;;;5004074;28;20487;-79
2023/02/11 00:26:51;;;;;;;11.95;4.43;;;;;;;;;;5026394;28;20025;-78
2023/02/11 00:29:16;;;;;;;13.55;4.50;;;;;;;;;;5024687;28;20486;-79
2023/02/11 00:31:42;;;;;;;14.68;5.20;;;;;;;;;;5000738;28;20041;-79
2023/02/11 00:34:07;;;;;;;11.30;4.78;;;;;;;;;;5027656;28;20029;-78
2023/02/11 00:36:33;;;;;;;14.77;5.00;;;;;;;;;;5027853;28;20036;-78
2023/02/11 00:38:59;;;;;;;9.02;4.20;;;;;;;;;;5025386;28;20064;-79
2023/02/11 00:41:25;;;;;;;9.57;4.13;;;;;;;;;;5029643;28;20100;-79
2023/02/11 00:43:51;;;;;;;13.70;4.40;;;;;;;;;;5011325;28;20035;-78
2023/02/11 00:46:16;;;;;;;11.15;4.05;;;;;;;;;;5005685;28;20036;-78
2023/02/11 00:48:42;;;;;;;10.70;4.28;;;;;;;;;;5028438;28;20041;-78
2023/02/11 00:51:08;;;;;;;9.88;4.53;;;;;;;;;;5004822;28;20034;-78
2023/02/11 00:53:34;;;;;;;8.60;3.90;;;;;;;;;;5024779;28;20095;-79
2023/02/11 00:56:00;;;;;;;7.90;4.35;;;;;;;;;;5020438;28;20038;-79
2023/02/11 00:58:25;;;;;;;11.57;3.53;;;;;;;;;;5026151;28;20025;-79
2023/02/11 01:00:52;;;;;;;11.02;3.90;;;;;;;;;;5009841;28;20116;-79
2023/02/11 01:03:17;;;;;;;7.53;3.90;;;;;;;;;;5029427;28;20029;-79
2023/02/11 01:05:43;;;;;;;8.05;3.42;;;;;;;;;;5010844;28;20470;-79
2023/02/11 01:08:08;;;;;;;9.02;3.40;;;;;;;;;;4999866;28;20072;-79
2023/02/11 01:10:34;;;;;;;9.52;3.35;;;;;;;;;;5005263;28;20029;-79
2023/02/11 01:13:00;;;;;;;10.75;3.92;;;;;;;;;;5010523;28;20025;-79
2023/02/11 01:15:26;;;;;;;8.35;3.50;;;;;;;;;;5011129;28;20033;-79
2023/02/11 01:17:51;;;;;;;11.88;4.32;;;;;;;;;;5025708;28;20416;-79
2023/02/11 01:20:21;;;;;;;12.45;4.25;;;;;;;;;;5029305;28;20359;-79
2023/02/11 01:22:46;;;;;;;9.55;3.30;;;;;;;;;;5027970;28;20036;-79
2023/02/11 01:25:12;;;;;;;7.30;3.28;;;;;;;;;;5029380;28;20389;-79
2023/02/11 01:27:37;;;;;;;15.45;3.42;;;;;;;;;;5025844;28;20086;-79
2023/02/11 01:30:05;;;;;;;6.75;3.30;;;;;;;;;;5020619;28;22191;-79
2023/02/11 01:32:30;;;;;;;12.05;3.70;;;;;;;;;;5009589;28;20021;-79
2023/02/11 01:34:55;;;;;;;8.60;3.35;;;;;;;;;;5010869;28;20041;-79
2023/02/11 01:37:21;;;;;;;9.25;3.15;;;;;;;;;;5031556;28;20021;-79
2023/02/11 01:39:46;;;;;;;9.98;2.97;;;;;;;;;;5028030;28;20064;-79
2023/02/11 01:42:17;;;;;;;10.02;3.15;;;;;;;;;;5025375;28;20272;-79
2023/02/11 01:44:43;;;;;;;7.07;3.15;;;;;;;;;;5028614;28;20109;-79
2023/02/11 01:47:08;;;;;;;7.80;3.30;;;;;;;;;;5010396;28;20600;-79
2023/02/11 01:49:59;;;;;;;10.25;3.42;;;;;;;;;;5011143;28;20040;-79
2023/02/11 01:52:33;;;;;;;12.95;3.42;;;;;;;;;;5000815;28;20049;-79
2023/02/11 01:57:52;;;;;;;12.32;2.80;;;;;;;;;;5025342;28;20100;-79
2023/02/11 02:00:21;;;;;;;6.32;2.95;;;;;;;;;;5025484;28;20029;-79
2023/02/11 02:02:59;;;;;;;11.25;3.42;;;;;;;;;;5020153;28;20473;-79
2023/02/11 02:05:34;;;;;;;10.27;3.58;;;;;;;;;;5027750;28;20036;-79
2023/02/11 02:08:33;;;;;;;9.18;3.30;;;;;;;;;;5026043;28;20041;-79
2023/02/11 02:10:59;;;;;;;9.13;3.47;;;;;;;;;;5004730;28;20088;-79
2023/02/11 02:13:27;;;;;;;9.63;3.25;;;;;;;;;;5026441;28;20025;-79
2023/02/11 02:15:58;;;;;;;10.38;3.70;;;;;;;;;;5005106;28;20063;-79
2023/02/11 02:19:01;;;;;;;9.02;3.20;;;;;;;;;;5027792;28;20021;-79
2023/02/11 02:21:41;;;;;;;8.88;3.60;;;;;;;;;;5009961;28;20018;-79
2023/02/11 02:24:20;;;;;;;8.05;3.13;;;;;;;;;;5028729;28;20029;-79
2023/02/11 02:27:08;;;;;;;7.78;3.28;;;;;;;;;;5010226;28;20033;-79
2023/02/11 02:30:10;;;;;;;10.45;3.53;;;;;;;;;;5022652;28;20017;-79
2023/02/11 02:32:46;;;;;;;10.88;3.42;;;;;;;;;;5026184;28;20036;-79
2023/02/11 02:35:45;;;;;;;11.93;3.70;;;;;;;;;;5008933;28;20064;-79
2023/02/11 02:38:17;;;;;;;8.48;3.60;;;;;;;;;;5012379;28;20029;-79
2023/02/11 02:41:05;;;;;;;13.23;3.65;;;;;;;;;;5003046;28;20052;-79
2023/02/11 02:43:33;;;;;;;10.93;3.72;;;;;;;;;;5023015;28;20090;-79
2023/02/11 02:46:10;;;;;;;12.00;3.65;;;;;;;;;;5002899;28;20370;-79
2023/02/11 02:48:36;;;;;;;11.40;3.55;;;;;;;;;;5023267;28;20490;-79
2023/02/11 02:51:16;;;;;;;10.25;3.75;;;;;;;;;;5020700;28;20034;-78
2023/02/11 02:54:05;;;;;;;10.18;3.42;;;;;;;;;;5005840;28;20025;-79
2023/02/11 02:56:36;;;;;;;8.23;3.67;;;;;;;;;;5027167;28;20072;-79
2023/02/11 02:59:12;;;;;;;8.75;3.80;;;;;;;;;;5021809;28;20490;-79
2023/02/11 03:01:45;;;;;;;9.38;3.88;;;;;;;;;;5022896;28;20477;-79
2023/02/11 03:04:27;;;;;;;10.63;4.05;;;;;;;;;;5021874;28;20026;-79
2023/02/11 03:07:09;;;;;;;15.48;4.53;;;;;;;;;;5012414;28;20068;-79
2023/02/11 03:09:41;;;;;;;10.13;4.00;;;;;;;;;;5021121;28;20112;-79
2023/02/11 03:12:08;;;;;;;11.00;4.43;;;;;;;;;;5019171;28;20394;-79
2023/02/11 03:14:35;;;;;;;7.30;3.80;;;;;;;;;;5020662;28;20064;-78
2023/02/11 03:17:03;;;;;;;11.65;4.25;;;;;;;;;;5020131;28;20094;-79
2023/02/11 03:19:44;;;;;;;11.23;4.00;;;;;;;;;;5008744;28;20497;-79
2023/02/11 03:22:21;;;;;;;13.35;4.05;;;;;;;;;;5028406;28;20021;-79
2023/02/11 03:24:47;;;;;;;12.43;4.68;;;;;;;;;;5004858;28;20470;-79
2023/02/11 03:27:25;;;;;;;11.18;4.25;;;;;;;;;;5023551;28;20091;-79
2023/02/11 03:30:02;;;;;;;11.13;4.18;;;;;;;;;;5009150;28;20029;-79
2023/02/11 03:32:34;;;;;;;8.38;3.97;;;;;;;;;;5008811;28;20029;-79
2023/02/11 03:35:53;;;;;;;10.35;4.28;;;;;;;;;;5030082;28;20371;-79
2023/02/11 03:38:30;;;;;;;9.05;3.95;;;;;;;;;;4917244;29;20030;-79
2023/02/11 03:40:58;;;;;;;9.00;3.97;;;;;;;;;;5002452;28;20132;-79
2023/02/11 03:43:31;;;;;;;8.07;4.28;;;;;;;;;;5023957;28;20029;-79
2023/02/11 03:45:58;;;;;;;9.23;4.63;;;;;;;;;;5013431;28;20370;-79
2023/02/11 03:48:39;;;;;;;11.73;4.30;;;;;;;;;;5011749;28;20438;-79
2023/02/11 03:51:08;;;;;;;11.10;4.22;;;;;;;;;;5033058;28;20370;-79
2023/02/11 03:53:36;;;;;;;11.18;4.00;;;;;;;;;;5029200;28;20185;-79
2023/02/11 03:56:05;;;;;;;9.85;4.30;;;;;;;;;;5031797;28;20543;-79
2023/02/11 03:58:30;;;;;;;11.57;4.80;;;;;;;;;;5025735;28;20036;-79
2023/02/11 04:00:56;;;;;;;10.77;4.93;;;;;;;;;;5026759;28;20033;-79
2023/02/11 04:03:21;;;;;;;12.45;4.75;;;;;;;;;;5007388;28;20025;-79
2023/02/11 04:05:47;;;;;;;11.77;5.50;;;;;;;;;;5027127;28;20029;-79
2023/02/11 04:08:12;;;;;;;11.38;4.78;;;;;;;;;;5028757;28;20113;-79
2023/02/11 04:10:37;;;;;;;11.73;5.07;;;;;;;;;;5010323;28;20025;-79
2023/02/11 04:13:03;;;;;;;9.93;5.15;;;;;;;;;;5023109;28;20037;-79
2023/02/11 04:15:28;;;;;;;10.43;5.68;;;;;;;;;;5008375;28;20037;-79
2023/02/11 04:17:54;;;;;;;11.30;5.18;;;;;;;;;;5015475;28;20032;-79
2023/02/11 04:20:20;;;;;;;11.35;4.95;;;;;;;;;;5019159;28;20413;-79
2023/02/11 04:22:45;;;;;;;15.30;5.85;;;;;;;;;;5009190;28;20052;-79
2023/02/11 04:25:11;;;;;;;13.30;5.50;;;;;;;;;;5019956;28;20029;-79
2023/02/11 04:27:36;;;;;;;12.32;5.43;;;;;;;;;;5010651;28;20133;-79
2023/02/11 04:30:03;;;;;;;13.95;5.88;;;;;;;;;;5010746;28;20047;-79
2023/02/11 04:32:29;;;;;;;11.73;5.68;;;;;;;;;;5012628;28;20160;-79
2023/02/11 04:34:54;;;;;;;12.52;5.53;;;;;;;;;;5022690;28;20109;-79
2023/02/11 04:37:20;;;;;;;14.38;5.78;;;;;;;;;;5024076;28;20022;-79
2023/02/11 04:39:45;;;;;;;11.70;5.72;;;;;;;;;;5023215;28;20112;-79
2023/02/11 04:42:11;;;;;;;12.40;5.38;;;;;;;;;;5028785;28;20036;-79
2023/02/11 04:44:36;;;;;;;14.43;6.38;;;;;;;;;;5028288;28;20010;-79
2023/02/11 04:47:02;;;;;;;15.43;6.65;;;;;;;;;;4992617;28;20033;-79
2023/02/11 04:49:27;;;;;;;10.75;5.68;;;;;;;;;;5027730;28;20025;-79
2023/02/11 04:51:52;;;;;;;12.07;5.72;;;;;;;;;;5027430;28;20032;-79
2023/02/11 04:54:18;;;;;;;22.30;5.85;;;;;;;;;;5028213;28;20470;-79
2023/02/11 04:56:44;;;;;;;10.18;5.80;;;;;;;;;;5027005;28;20025;-79
2023/02/11 04:59:10;;;;;;;13.40;6.05;;;;;;;;;;5028933;28;20067;-79
2023/02/11 05:01:36;;;;;;;14.02;6.60;;;;;;;;;;5028923;28;20085;-79
2023/02/11 05:04:01;;;;;;;15.55;5.78;;;;;;;;;;5022200;28;21545;-79
2023/02/11 05:06:27;;;;;;;17.88;6.95;;;;;;;;;;5031719;28;20065;-79
2023/02/11 05:08:52;;;;;;;11.88;5.97;;;;;;;;;;5011483;28;20021;-79
2023/02/11 05:11:20;;;;;;;17.13;6.53;;;;;;;;;;5027376;28;20043;-79
2023/02/11 05:13:46;;;;;;;12.15;5.90;;;;;;;;;;5029506;28;20033;-79
2023/02/11 05:16:12;;;;;;;15.27;7.07;;;;;;;;;;5004281;28;20025;-79
2023/02/11 05:18:39;;;;;;;15.60;7.40;;;;;;;;;;5022894;28;20061;-79
2023/02/11 05:21:06;;;;;;;15.15;6.75;;;;;;;;;;5029439;28;20021;-79
2023/02/11 05:23:33;;;;;;;13.02;6.38;;;;;;;;;;5012516;28;20029;-79
2023/02/11 05:25:58;;;;;;;11.95;6.35;;;;;;;;;;5025875;28;20025;-79
2023/02/11 05:28:23;;;;;;;14.38;6.50;;;;;;;;;;4993331;28;20041;-79
2023/02/11 05:30:49;;;;;;;15.38;6.70;;;;;;;;;;5025465;28;20038;-79
2023/02/11 05:33:14;;;;;;;13.05;6.25;;;;;;;;;;5029027;28;20038;-79
2023/02/11 05:35:40;;;;;;;18.98;6.53;;;;;;;;;;5030668;28;20038;-79
2023/02/11 05:38:05;;;;;;;13.73;6.55;;;;;;;;;;5030013;28;20191;-79
2023/02/11 05:40:31;;;;;;;13.75;6.25;;;;;;;;;;5021717;28;20029;-79
2023/02/11 05:42:56;;;;;;;15.50;6.68;;;;;;;;;;5005497;28;20037;-79
2023/02/11 05:45:21;;;;;;;14.57;6.60;;;;;;;;;;5024009;28;20041;-79
2023/02/11 05:47:47;;;;;;;12.32;6.55;;;;;;;;;;5024366;28;20543;-79
2023/02/11 05:50:12;;;;;;;14.82;6.80;;;;;;;;;;5027212;28;20029;-79
2023/02/11 05:52:37;;;;;;;13.10;6.72;;;;;;;;;;5028404;28;20516;-79
2023/02/11 05:55:03;;;;;;;14.50;6.72;;;;;;;;;;5028968;28;20160;-79
2023/02/11 05:57:29;;;;;;;13.40;6.80;;;;;;;;;;5007801;28;20063;-79
2023/02/11 05:59:54;;;;;;;13.68;6.70;;;;;;;;;;5026334;28;20108;-79
2023/02/11 06:02:19;;;;;;;13.93;7.07;;;;;;;;;;5020520;28;20036;-79
2023/02/11 06:04:45;;;;;;;15.35;7.35;;;;;;;;;;5027889;28;20078;-79
2023/02/11 06:07:10;;;;;;;14.93;7.75;;;;;;;;;;5002916;28;20154;-79
2023/02/11 06:09:36;;;;;;;17.15;7.20;;;;;;;;;;5008203;28;20022;-79
2023/02/11 06:12:01;;;;;;;14.77;6.97;;;;;;;;;;5006654;28;20112;-79
2023/02/11 06:14:26;;;;;;;16.35;7.70;;;;;;;;;;5006810;28;20056;-79
2023/02/11 06:16:52;;;;;;;12.77;7.05;;;;;;;;;;5021869;28;20021;-79
2023/02/11 06:19:17;;;;;;;15.73;8.05;;;;;;;;;;5018853;28;20029;-79
2023/02/11 06:21:42;;;;;;;14.57;7.35;;;;;;;;;;5019149;28;20029;-79
2023/02/11 06:24:08;;;;;;;16.67;8.55;;;;;;;;;;5010475;28;20021;-79
2023/02/11 06:26:33;;;;;;;15.60;8.02;;;;;;;;;;5021647;28;20109;-79
2023/02/11 06:28:59;;;;;;;15.82;8.05;;;;;;;;;;5021684;28;20068;-79
2023/02/11 06:31:25;;;;;;;22.05;8.15;;;;;;;;;;5013578;28;20079;-79
2023/02/11 06:33:50;;;;;;;16.17;8.00;;;;;;;;;;5005865;28;20124;-79
2023/02/11 06:36:19;;;;;;;17.40;8.77;;;;;;;;;;5032856;28;20021;-79
2023/02/11 06:38:45;;;;;;;16.50;8.43;;;;;;;;;;5013019;28;20083;-79
2023/02/11 06:41:12;;;;;;;19.88;8.60;;;;;;;;;;5017729;28;20021;-79
2023/02/11 06:43:38;;;;;;;16.90;9.15;;;;;;;;;;5007567;28;20060;-79
2023/02/11 06:46:04;;;;;;;23.08;9.15;;;;;;;;;;5007119;28;20102;-79
2023/02/11 06:48:29;;;;;;;17.42;9.13;;;;;;;;;;5027524;28;20033;-79
2023/02/11 06:50:55;;;;;;;17.52;9.07;;;;;;;;;;5011304;28;20381;-79
2023/02/11 06:53:20;;;;;;;18.30;9.27;;;;;;;;;;5008021;28;20469;-79
2023/02/11 06:55:46;;;;;;;20.23;10.27;;;;;;;;;;5011299;28;20032;-79
2023/02/11 06:58:11;;;;;;;18.50;9.68;;;;;;;;;;5023927;28;20108;-79
2023/02/11 07:00:36;;;;;;;20.95;10.05;;;;;;;;;;5003401;28;20033;-79
2023/02/11 07:03:02;;;;;;;21.17;10.32;;;;;;;;;;5018986;28;20496;-79
2023/02/11 07:05:27;;;;;;;18.98;10.32;;;;;;;;;;5008718;28;20025;-79
2023/02/11 07:07:53;;;;;;;22.48;10.82;;;;;;;;;;5030433;28;20496;-79
2023/02/11 07:10:18;;;;;;;21.25;10.10;;;;;;;;;;5023333;28;20780;-79
2023/02/11 07:12:44;;;;;;;21.35;9.93;;;;;;;;;;5023559;28;20059;-79
2023/02/11 07:15:09;;;;;;;20.77;10.50;;;;;;;;;;5018786;28;20175;-79
2023/02/11 07:17:35;;;;;;;23.20;9.82;;;;;;;;;;5015356;28;20030;-79
2023/02/11 07:20:00;;;;;;;19.70;9.93;;;;;;;;;;5019672;28;20084;-79
2023/02/11 07:22:26;;;;;;;18.17;9.75;;;;;;;;;;5023320;28;20044;-79
2023/02/11 07:24:51;;;;;;;23.30;10.85;;;;;;;;;;5018616;28;20053;-79
2023/02/11 07:27:16;;;;;;;20.13;10.23;;;;;;;;;;5019756;28;20425;-79
2023/02/11 07:29:42;;;;;;;20.83;10.65;;;;;;;;;;5019569;28;20033;-79
2023/02/11 07:32:07;;;;;;;20.75;10.13;;;;;;;;;;5005357;28;20048;-79
2023/02/11 07:34:33;;;;;;;21.77;10.30;;;;;;;;;;5003306;28;20025;-79
2023/02/11 07:36:58;;;;;;;20.85;10.40;;;;;;;;;;5027609;28;20123;-79
2023/02/11 07:39:26;;;;;;;22.67;11.07;;;;;;;;;;5010341;28;20033;-79
2023/02/11 07:41:52;;;;;;;22.48;11.65;;;;;;;;;;5004094;28;20536;-79
2023/02/11 07:44:17;;;;;;;22.38;10.10;;;;;;;;;;5021303;28;20483;-79
2023/02/11 07:46:44;;;;;;;22.35;11.77;;;;;;;;;;5007530;28;20116;-79
2023/02/11 07:49:10;;;;;;;21.40;9.98;;;;;;;;;;4998184;28;20017;-79
2023/02/11 07:51:36;;;;;;;28.65;11.75;;;;;;;;;;5020147;28;20128;-79
2023/02/11 07:54:01;;;;;;;22.08;10.90;;;;;;;;;;5004995;28;20604;-79
2023/02/11 07:56:28;;;;;;;26.23;11.98;;;;;;;;;;5024443;28;20043;-79
2023/02/11 07:58:55;;;;;;;24.13;11.32;;;;;;;;;;5007200;28;20489;-78
2023/02/11 08:01:24;;;;;;;24.77;11.68;;;;;;;;;;5022382;28;20025;-79
2023/02/11 08:03:49;;;;;;;27.60;11.93;;;;;;;;;;5008906;28;20592;-79
2023/02/11 08:06:19;;;;;;;25.10;11.20;;;;;;;;;;5017196;28;20018;-79
2023/02/11 08:08:45;;;;;;;21.10;11.75;;;;;;;;;;5021886;28;20033;-79
2023/02/11 08:11:25;;;;;;;25.40;11.20;;;;;;;;;;5028313;28;20036;-79
2023/02/11 08:13:52;;;;;;;24.70;11.48;;;;;;;;;;5023115;28;20469;-78
2023/02/11 08:16:19;;;;;;;23.23;11.20;;;;;;;;;;5009042;28;20021;-79
2023/02/11 08:18:45;;;;;;;25.42;12.25;;;;;;;;;;5016418;28;20030;-79
2023/02/11 08:21:10;;;;;;;25.70;12.43;;;;;;;;;;5016891;28;20036;-79
2023/02/11 08:23:38;;;;;;;28.95;12.70;;;;;;;;;;5028034;28;20055;-79
2023/02/11 08:26:09;;;;;;;27.35;12.80;;;;;;;;;;5015830;28;20025;-79
2023/02/11 08:28:36;;;;;;;27.63;12.77;;;;;;;;;;5013154;28;20486;-79
2023/02/11 08:31:10;;;;;;;26.25;12.13;;;;;;;;;;5017596;28;20053;-79
2023/02/11 08:33:36;;;;;;;28.38;12.32;;;;;;;;;;5029981;28;20025;-79
2023/02/11 08:36:08;;;;;;;29.25;13.25;;;;;;;;;;5024302;28;20033;-79
2023/02/11 08:38:33;;;;;;;25.13;12.32;;;;;;;;;;5024429;28;20128;-78
2023/02/11 08:40:59;;;;;;;28.52;12.82;;;;;;;;;;5023400;28;20591;-79
2023/02/11 08:43:25;;;;;;;30.05;12.63;;;;;;;;;;5022766;28;20531;-78
2023/02/11 08:45:50;;;;;;;29.70;13.25;;;;;;;;;;5028944;28;20026;-79
2023/02/11 08:48:16;;;;;;;26.23;12.95;;;;;;;;;;5026119;28;20029;-79
2023/02/11 08:50:41;;;;;;;26.35;12.50;;;;;;;;;;5010248;28;20045;-78
2023/02/11 08:53:07;;;;;;;27.98;13.00;;;;;;;;;;5030428;28;20036;-79
2023/02/11 08:55:32;;;;;;;26.40;12.10;;;;;;;;;;5032798;28;20133;-79
2023/02/11 08:57:58;;;;;;;22.33;11.70;;;;;;;;;;5034887;28;20025;-79
2023/02/11 09:00:23;;;;;;;23.35;12.13;;;;;;;;;;5010153;28;20033;-78
2023/02/11 09:02:49;;;;;;;28.63;13.32;;;;;;;;;;5029588;28;20022;-79
2023/02/11 09:05:14;;;;;;;30.33;13.88;;;;;;;;;;5032650;28;20032;-79
2023/02/11 09:07:39;;;;;;;29.17;13.48;;;;;;;;;;5036196;28;20034;-79
2023/02/11 09:10:05;;;;;;;25.80;12.63;;;;;;;;;;5013833;28;20385;-79
2023/02/11 09:12:31;;;;;;;27.88;11.93;;;;;;;;;;5029019;28;20032;-79
2023/02/11 09:14:56;;;;;;;23.98;11.70;;;;;;;;;;5034078;28;20531;-79
2023/02/11 09:17:22;;;;;;;25.23;12.27;;;;;;;;;;5039997;28;20032;-79
2023/02/11 09:19:47;;;;;;;23.60;11.77;;;;;;;;;;5013418;28;20037;-79
2023/02/11 09:22:12;;;;;;;20.38;11.15;;;;;;;;;;5032717;28;20029;-79
2023/02/11 09:24:38;;;;;;;23.30;12.20;;;;;;;;;;5036132;28;20033;-79
2023/02/11 09:27:04;;;;;;;22.67;11.57;;;;;;;;;;5037215;28;20040;-79
2023/02/11 09:29:30;;;;;;;21.42;11.00;;;;;;;;;;5033416;28;20428;-79
2023/02/11 09:31:55;;;;;;;23.42;11.82;;;;;;;;;;5028094;28;20025;-79
2023/02/11 09:34:20;;;;;;;21.02;11.23;;;;;;;;;;5025596;28;20065;-78
2023/02/11 09:36:46;;;;;;;23.08;11.25;;;;;;;;;;5034583;28;20037;-78
2023/02/11 09:39:15;;;;;;;23.92;11.70;;;;;;;;;;5031195;28;20032;-79
2023/02/11 09:42:04;;;;;;;22.88;10.82;;;;;;;;;;5023737;28;20470;-79
2023/02/11 09:44:35;;;;;;;23.73;11.95;;;;;;;;;;5026749;28;20478;-79
2023/02/11 09:47:31;;;;;;;23.98;12.10;;;;;;;;;;5036919;28;20394;-79
2023/02/11 09:50:09;;;;;;;23.27;10.65;;;;;;;;;;5023179;28;20417;-79
2023/02/11 09:52:50;;;;;;;24.02;12.25;;;;;;;;;;5031467;28;20029;-79
2023/02/11 09:55:26;;;;;;;21.63;10.52;;;;;;;;;;5006281;28;20041;-79
2023/02/11 09:57:52;;;;;;;20.92;10.88;;;;;;;;;;5026545;28;20478;-79
2023/02/11 10:00:35;;;;;;;19.65;10.70;;;;;;;;;;5029643;28;20025;-79
2023/02/11 10:03:20;;;;;;;;;;;;;;;;;;5035598;28;20029;-79
2023/02/11 10:06:21;;;;;;;17.73;9.75;;;;;;;;;;5015817;28;19921;-79
2023/02/11 10:09:23;;;;;;;20.17;10.80;;;;;;;;;;5023579;28;20108;-79
2023/02/11 10:12:07;;;;;;;19.52;10.32;;;;;;;;;;5021961;28;20041;-78
2023/02/11 10:15:02;;;;;;;20.58;10.63;;;;;;;;;;5012824;28;20022;-79
2023/02/11 10:17:53;;;;;;;21.33;10.45;;;;;;;;;;5027675;28;20029;-79
2023/02/11 10:20:29;;;;;;;21.13;10.88;;;;;;;;;;5031521;28;20108;-79
2023/02/11 10:23:00;;;;;;;26.02;11.27;;;;;;;;;;5029339;28;20079;-79
2023/02/11 10:25:41;;;;;;;20.90;10.70;;;;;;;;;;5026249;28;20014;-79
2023/02/11 10:28:16;;;;;;;22.17;10.48;;;;;;;;;;5022383;28;20525;-79
2023/02/11 10:30:48;;;;;;;20.60;10.45;;;;;;;;;;5018009;28;20024;-78
2023/02/11 10:33:31;;;;;;;21.17;10.18;;;;;;;;;;5030004;28;20457;-78
2023/02/11 10:35:57;;;;;;;22.52;10.68;;;;;;;;;;5030838;28;20029;-79
2023/02/11 10:38:23;;;;;;;20.92;11.10;;;;;;;;;;5027343;28;20105;-79
2023/02/11 10:40:48;;;;;;;27.60;11.10;;;;;;;;;;5022543;28;20112;-79
2023/02/11 10:43:18;;;;;;;21.73;11.23;;;;;;;;;;5029215;28;20063;-79
2023/02/11 10:45:47;;;;;;;21.08;10.90;;;;;;;;;;5028628;28;20023;-79
2023/02/11 10:48:37;;;;;;;22.25;11.00;;;;;;;;;;5029082;28;20032;-79
2023/02/11 10:51:09;;;;;;;20.48;10.40;;;;;;;;;;5003029;28;20041;-79
2023/02/11 10:53:34;;;;;;;24.42;11.10;;;;;;;;;;5029090;28;20083;-78
2023/02/11 10:56:04;;;;;;;23.98;11.65;;;;;;;;;;5027728;28;20030;-79
2023/02/11 10:58:34;;;;;;;23.90;11.25;;;;;;;;;;5023221;28;20571;-79
2023/02/11 11:01:00;;;;;;;18.27;10.60;;;;;;;;;;5029400;28;20064;-79
2023/02/11 11:03:33;;;;;;;24.35;12.02;;;;;;;;;;5014776;28;20048;-79
2023/02/11 11:05:59;;;;;;;;;;;;;;;;;;5033581;28;20048;-79
2023/02/11 11:08:46;;;;;;;20.05;9.95;;;;;;;;;;5023885;28;19917;-79
2023/02/11 11:11:15;;;;;;;19.92;10.13;;;;;;;;;;5035431;28;20030;-79
2023/02/11 11:13:53;;;;;;;22.40;10.27;;;;;;;;;;5011251;28;20028;-79
2023/02/11 11:16:23;;;;;;;21.58;10.50;;;;;;;;;;5022460;28;20061;-79
2023/02/11 11:18:52;;;;;;;21.85;10.52;;;;;;;;;;5033357;28;20508;-79
2023/02/11 11:21:35;;;;;;;20.90;10.48;;;;;;;;;;5038748;28;20084;-79
2023/02/11 11:24:02;;;;;;;18.85;10.20;;;;;;;;;;5013344;28;20068;-79
2023/02/11 11:26:43;;;;;;;23.85;10.73;;;;;;;;;;5029829;28;20477;-78
2023/02/11 11:29:17;;;;;;;20.00;10.05;;;;;;;;;;5030270;28;20120;-79
2023/02/11 11:31:59;;;;;;;21.08;10.82;;;;;;;;;;5030743;28;20108;-79
2023/02/11 11:34:32;;;;;;;17.02;9.75;;;;;;;;;;5028200;28;20429;-79
2023/02/11 11:37:00;;;;;;;22.15;10.55;;;;;;;;;;5026083;28;20038;-79
2023/02/11 11:39:30;;;;;;;21.42;10.45;;;;;;;;;;5031244;28;20044;-79
2023/02/11 11:42:00;;;;;;;22.33;10.65;;;;;;;;;;5032461;28;20075;-79
2023/02/11 11:44:33;;;;;;;18.65;10.13;;;;;;;;;;5029475;28;20130;-79
2023/02/11 11:47:16;;;;;;;;;;;;;;;;;;5016201;28;20021;-79
2023/02/11 11:50:18;;;;;;;17.88;9.40;;;;;;;;;;5024292;28;19917;-79
2023/02/11 11:52:46;;;;;;;19.48;9.57;;;;;;;;;;5028297;28;20060;-79
2023/02/11 11:55:44;;;;;;;22.77;11.05;;;;;;;;;;5027362;28;20052;-79
2023/02/11 11:58:18;;;;;;;21.20;9.95;;;;;;;;;;5032258;28;20071;-79
2023/02/11 12:01:03;;;;;;;18.80;9.82;;;;;;;;;;5033841;28;20076;-79
2023/02/11 12:03:45;;;;;;;18.23;9.60;;;;;;;;;;5027181;28;20029;-79
2023/02/11 12:06:34;;;;;;;22.20;10.55;;;;;;;;;;5010828;28;20021;-79
2023/02/11 12:09:39;;;;;;;19.13;9.90;;;;;;;;;;5034511;28;20029;-79
2023/02/11 12:12:17;;;;;;;22.88;9.63;;;;;;;;;;5034152;28;20099;-78
2023/02/11 12:14:56;;;;;;;20.02;9.52;;;;;;;;;;5037258;28;20501;-78
2023/02/11 12:17:44;;;;;;;18.58;9.82;;;;;;;;;;5033642;28;20040;-79
2023/02/11 12:20:22;;;;;;;20.23;9.98;;;;;;;;;;5013925;28;20040;-79
2023/02/11 12:23:05;;;;;;;16.30;10.07;;;;;;;;;;5026008;28;20393;-79
2023/02/11 12:26:02;;;;;;;20.10;10.00;;;;;;;;;;5032531;28;20033;-79
2023/02/11 12:28:39;;;;;;;17.00;9.40;;;;;;;;;;5033431;28;20432;-79
2023/02/11 12:31:32;;;;;;;21.45;9.98;;;;;;;;;;5028393;28;20029;-79
2023/02/11 12:34:28;;;;;;;20.23;9.95;;;;;;;;;;5028667;28;20481;-79
2023/02/11 12:37:18;;;;;;;19.42;9.80;;;;;;;;;;5031366;28;20040;-79
2023/02/11 12:39:55;;;;;;;21.95;10.40;;;;;;;;;;5034960;28;20432;-79
2023/02/11 12:45:10;;;;;;;16.85;9.68;;;;;;;;;;5031062;28;20040;-79
2023/02/11 12:47:54;;;;;;;19.40;10.35;;;;;;;;;;5039594;28;20116;-79
2023/02/11 12:50:25;;;;;;;20.45;10.23;;;;;;;;;;5029010;28;20029;-79
2023/02/11 12:53:31;;;;;;;22.55;10.32;;;;;;;;;;5030168;28;20029;-79
2023/02/11 12:56:05;;;;;;;17.92;9.65;;;;;;;;;;4982694;28;20183;-79
2023/02/11 12:58:34;;;;;;;22.63;10.95;;;;;;;;;;5026878;28;20371;-79
2023/02/11 13:01:08;;;;;;;18.42;10.15;;;;;;;;;;5030858;28;20029;-78
2023/02/11 13:03:40;;;;;;;20.67;10.88;;;;;;;;;;5024575;28;20398;-79
2023/02/11 13:06:13;;;;;;;19.75;10.15;;;;;;;;;;5020313;28;20130;-79
2023/02/11 13:08:52;;;;;;;18.83;10.63;;;;;;;;;;5030831;28;20527;-79
2023/02/11 13:11:24;;;;;;;23.27;10.90;;;;;;;;;;5033160;28;20026;-79
2023/02/11 13:13:59;;;;;;;21.77;11.57;;;;;;;;;;5022286;28;20075;-79
2023/02/11 13:16:47;;;;;;;19.30;11.00;;;;;;;;;;5032513;28;20066;-79
2023/02/11 13:19:12;;;;;;;21.60;10.82;;;;;;;;;;5026708;28;20057;-79
2023/02/11 13:22:12;;;;;;;21.38;10.48;;;;;;;;;;5010479;28;20068;-79
2023/02/11 13:24:45;;;;;;;21.23;10.80;;;;;;;;;;5001108;28;20382;-79
2023/02/11 13:27:28;;;;;;;;;;;;;;;;;;5036577;28;20025;-79
2023/02/11 13:30:34;;;;;;;16.20;9.38;;;;;;;;;;5030058;28;19917;-79
2023/02/11 13:32:59;;;;;;;19.25;9.73;;;;;;;;;;4916261;29;20496;-79
2023/02/11 13:35:38;;;;;;;23.75;10.63;;;;;;;;;;4899804;29;20071;-79
2023/02/11 13:38:07;;;;;;;23.17;12.00;;;;;;;;;;4982024;28;20044;-79
2023/02/11 13:40:38;;;;;;;20.25;10.90;;;;;;;;;;5018803;28;20397;-79
2023/02/11 13:43:17;;;;;;;24.20;11.02;;;;;;;;;;5033892;28;20057;-79
2023/02/11 13:45:45;;;;;;;17.48;10.10;;;;;;;;;;5028143;28;20022;-79
2023/02/11 13:48:30;;;;;;;17.73;10.73;;;;;;;;;;5025837;28;20700;-79
2023/02/11 13:50:59;;;;;;;20.42;11.25;;;;;;;;;;5029358;28;20028;-79
2023/02/11 13:53:26;;;;;;;22.00;10.10;;;;;;;;;;5033083;28;20033;-79
2023/02/11 13:56:03;;;;;;;21.60;10.82;;;;;;;;;;5040011;28;20465;-79
2023/02/11 13:58:29;;;;;;;22.80;10.75;;;;;;;;;;5016573;28;20033;-79
2023/02/11 14:00:54;;;;;;;19.27;10.77;;;;;;;;;;5028609;28;20083;-79
2023/02/11 14:09:16;;;;;;;20.13;10.85;;;;;;;;;;5028162;28;20091;-79
2023/02/11 14:12:13;;;;;;;19.60;9.93;;;;;;;;;;5030065;28;20021;-79
2023/02/11 14:15:17;;;;;;;20.85;10.50;;;;;;;;;;5023298;28;20033;-79
2023/02/11 14:17:42;;;;;;;21.58;10.43;;;;;;;;;;5023999;28;20064;-79
2023/02/11 14:20:34;;;;;;;23.42;11.13;;;;;;;;;;5023752;28;20038;-79
2023/02/11 14:23:00;;;;;;;21.63;10.45;;;;;;;;;;5030575;28;20029;-79
2023/02/11 14:25:26;;;;;;;19.27;10.70;;;;;;;;;;5033014;28;20035;-78
2023/02/11 14:28:25;;;;;;;21.10;10.85;;;;;;;;;;5030025;28;20039;-78
2023/02/11 14:31:22;;;;;;;18.70;10.23;;;;;;;;;;4980995;28;20045;-78
2023/02/11 14:34:22;;;;;;;16.92;9.55;;;;;;;;;;5015491;28;20045;-78
2023/02/11 14:36:57;;;;;;;19.00;10.25;;;;;;;;;;5027463;28;20060;-79
2023/02/11 14:40:04;;;;;;;18.80;10.70;;;;;;;;;;5034641;28;20025;-79
2023/02/11 14:42:30;;;;;;;19.23;10.57;;;;;;;;;;5021089;28;20032;-79
2023/02/11 14:45:02;;;;;;;19.65;10.50;;;;;;;;;;5021489;28;20478;-79
2023/02/11 14:47:59;;;;;;;19.45;10.20;;;;;;;;;;5031194;28;20056;-79
2023/02/11 14:50:33;;;;;;;17.10;10.40;;;;;;;;;;5030346;28;20050;-79
2023/02/11 14:53:01;;;;;;;18.33;9.98;;;;;;;;;;5015104;28;20397;-79
2023/02/11 14:55:33;;;;;;;20.48;10.90;;;;;;;;;;5032284;28;20029;-79
2023/02/11 14:58:18;;;;;;;18.43;10.83;;;;;;;;;;5032131;28;20421;-79
2023/02/11 15:00:57;;;;;;;20.00;10.27;;;;;;;;;;5009521;28;20037;-79
2023/02/11 15:03:40;;;;;;;19.45;10.55;;;;;;;;;;5031822;28;20057;-79